createdAt,value
2022-11-09T05:04:07.212Z,-89
2022-11-09T05:06:35.672Z,-90
2022-11-09T05:09:05.680Z,-89
2022-11-09T05:11:33.821Z,-89
2022-11-09T05:14:01.888Z,-89
2022-11-09T05:16:30.396Z,-81
2022-11-09T05:18:58.784Z,-80
2022-11-09T05:21:28.355Z,-80
2022-11-09T05:24:01.574Z,-79
2022-11-09T05:26:31.302Z,-80
2022-11-09T05:28:59.941Z,-79
2022-11-09T05:31:29.078Z,-79
2022-11-09T05:33:57.453Z,-80
2022-11-09T05:36:27.866Z,-82
2022-11-09T05:38:56.430Z,-80
2022-11-09T05:41:24.707Z,-80
2022-11-09T05:43:53.044Z,-81
2022-11-09T05:46:21.283Z,-81
2022-11-09T05:48:49.383Z,-81
2022-11-09T05:51:17.644Z,-82
2022-11-09T05:53:47.529Z,-81
2022-11-09T05:56:16.588Z,-81
2022-11-09T05:58:44.908Z,-82
2022-11-09T06:01:15.023Z,-81
2022-11-09T06:03:44.359Z,-81
2022-11-09T06:06:14.221Z,-80
2022-11-09T06:08:42.296Z,-80
2022-11-09T06:11:16.826Z,-80
2022-11-09T06:13:49.775Z,-82
2022-11-09T06:16:18.160Z,-81
2022-11-09T06:18:46.180Z,-81
2022-11-09T06:21:14.410Z,-80
2022-11-09T06:23:42.412Z,-80
2022-11-09T06:26:13.183Z,-80
2022-11-09T06:28:42.063Z,-80
2022-11-09T06:31:13.164Z,-80
2022-11-09T06:33:41.191Z,-79
2022-11-09T06:36:10.452Z,-81
2022-11-09T06:38:38.796Z,-80
2022-11-09T06:41:07.085Z,-80
2022-11-09T06:43:36.678Z,-81
2022-11-09T06:46:05.431Z,-80
2022-11-09T06:48:33.515Z,-79
2022-11-09T06:51:02.033Z,-80
2022-11-09T06:53:31.768Z,-80
2022-11-09T06:56:00.402Z,-81
2022-11-09T06:58:29.216Z,-81
2022-11-09T07:01:00.853Z,-82
2022-11-09T07:03:29.241Z,-80
2022-11-09T07:05:57.734Z,-80
2022-11-09T07:08:25.775Z,-80
2022-11-09T07:10:54.123Z,-82
2022-11-09T07:13:22.617Z,-83
2022-11-09T07:15:55.184Z,-80
2022-11-09T07:18:24.700Z,-81
2022-11-09T07:20:52.873Z,-80
2022-11-09T07:23:21.222Z,-80
2022-11-09T07:25:49.511Z,-79
2022-11-09T07:28:17.728Z,-79
2022-11-09T07:30:50.368Z,-79
2022-11-09T07:33:19.298Z,-79
2022-11-09T07:35:48.779Z,-79
2022-11-09T07:38:19.864Z,-79
2022-11-09T07:40:47.855Z,-79
2022-11-09T07:43:15.952Z,-79
2022-11-09T07:45:43.972Z,-79
2022-11-09T07:48:13.009Z,-78
2022-11-09T07:58:13.254Z,-81
2022-11-09T08:00:42.777Z,-82
2022-11-09T08:03:12.028Z,-81
2022-11-09T08:05:40.316Z,-82
2022-11-09T08:08:10.365Z,-81
2022-11-09T08:10:39.211Z,-82
2022-11-09T08:13:12.227Z,-81
2022-11-09T08:15:41.959Z,-82
2022-11-09T08:18:14.228Z,-81
2022-11-09T08:20:42.644Z,-81
2022-11-09T08:23:12.947Z,-82
2022-11-09T08:25:41.676Z,-82
2022-11-09T08:28:14.700Z,-82
2022-11-09T08:30:43.742Z,-81
2022-11-09T08:33:13.170Z,-81
2022-11-09T08:35:41.301Z,-81
2022-11-09T08:38:10.981Z,-81
2022-11-09T08:40:40.111Z,-82
2022-11-09T08:43:11.773Z,-81
2022-11-09T08:45:42.036Z,-82
2022-11-09T08:48:18.587Z,-81
2022-11-09T08:50:46.884Z,-80
2022-11-09T08:53:16.512Z,-80
2022-11-09T08:55:49.178Z,-80
2022-11-09T08:58:20.095Z,-80
2022-11-09T09:00:48.574Z,-80
2022-11-09T09:03:17.516Z,-81
2022-11-09T09:05:45.756Z,-80
2022-11-09T09:08:15.883Z,-80
2022-11-09T09:10:44.261Z,-81
2022-11-09T09:13:12.783Z,-80
2022-11-09T09:15:42.951Z,-79
2022-11-09T09:18:11.787Z,-80
2022-11-09T09:20:40.425Z,-80
2022-11-09T09:23:09.589Z,-82
2022-11-09T09:25:39.534Z,-82
2022-11-09T09:31:51.212Z,-82
2022-11-09T09:34:19.816Z,-79
2022-11-09T09:36:48.600Z,-79
2022-11-09T09:39:16.714Z,-79
2022-11-09T09:41:50.472Z,-79
2022-11-09T09:44:26.029Z,-80
2022-11-09T09:47:01.754Z,-79
2022-11-09T09:49:32.127Z,-79
2022-11-09T09:52:04.354Z,-79
2022-11-09T09:54:36.883Z,-84
2022-11-09T09:57:05.465Z,-85
2022-11-09T09:59:38.760Z,-85
2022-11-09T10:02:13.678Z,-84
2022-11-09T10:04:43.723Z,-85
2022-11-09T10:07:17.365Z,-82
2022-11-09T10:10:06.416Z,-82
2022-11-09T10:12:46.736Z,-84
2022-11-09T10:15:19.773Z,-82
2022-11-09T10:18:02.796Z,-82
2022-11-09T10:20:39.526Z,-82
2022-11-09T10:23:37.662Z,-83
2022-11-09T10:26:10.036Z,-82
2022-11-09T10:29:09.669Z,-81
2022-11-09T10:31:35.354Z,-82
2022-11-09T10:34:19.709Z,-82
2022-11-09T10:36:54.213Z,-82
2022-11-09T10:39:23.971Z,-81
2022-11-09T10:41:53.367Z,-82
2022-11-09T10:44:22.691Z,-82
2022-11-09T10:47:05.060Z,-82
2022-11-09T10:49:35.409Z,-82
2022-11-09T10:52:05.309Z,-82
2022-11-09T10:54:38.308Z,-82
2022-11-09T10:57:15.604Z,-83
2022-11-09T10:59:49.250Z,-82
2022-11-09T11:02:41.034Z,-82
2022-11-09T11:05:34.332Z,-82
2022-11-09T11:08:34.798Z,-84
2022-11-09T11:11:38.341Z,-82
2022-11-09T11:14:23.043Z,-82
2022-11-09T11:16:53.986Z,-83
2022-11-09T11:19:39.180Z,-81
2022-11-09T11:22:32.135Z,-82
2022-11-09T11:25:19.024Z,-81
2022-11-09T11:27:53.568Z,-81
2022-11-09T11:30:28.137Z,-81
2022-11-09T11:32:56.913Z,-81
2022-11-09T11:35:32.572Z,-81
2022-11-09T11:38:12.017Z,-81
2022-11-09T11:40:43.382Z,-83
2022-11-09T11:43:26.500Z,-83
2022-11-09T11:45:59.511Z,-82
2022-11-09T11:48:58.953Z,-82
2022-11-09T11:51:34.057Z,-82
2022-11-09T11:54:10.987Z,-83
2022-11-09T11:56:44.663Z,-83
2022-11-09T11:59:39.820Z,-82
2022-11-09T12:02:27.309Z,-83
2022-11-09T12:05:21.411Z,-83
2022-11-09T12:07:57.542Z,-83
2022-11-09T12:10:38.704Z,-83
2022-11-09T12:13:14.098Z,-82
2022-11-09T12:15:50.868Z,-82
2022-11-09T12:18:35.821Z,-82
2022-11-09T12:21:15.469Z,-82
2022-11-09T12:23:56.328Z,-82
2022-11-09T12:26:46.487Z,-82
2022-11-09T12:29:24.200Z,-79
2022-11-09T12:32:03.682Z,-79
2022-11-09T12:34:35.846Z,-81
2022-11-09T12:37:07.756Z,-82
2022-11-09T12:39:41.745Z,-81
2022-11-09T12:42:17.765Z,-83
2022-11-09T12:44:49.810Z,-82
2022-11-09T12:47:22.422Z,-83
2022-11-09T12:49:51.216Z,-82
2022-11-09T12:52:30.218Z,-81
2022-11-09T12:54:58.944Z,-82
2022-11-09T12:57:33.544Z,-81
2022-11-09T13:00:02.860Z,-81
2022-11-09T13:02:32.875Z,-81
2022-11-09T13:05:02.705Z,-81
2022-11-09T13:07:49.974Z,-81
2022-11-09T13:10:29.971Z,-82
2022-11-09T13:13:20.112Z,-78
2022-11-09T13:16:13.692Z,-78
2022-11-09T13:18:51.467Z,-79
2022-11-09T13:21:49.860Z,-78
2022-11-09T13:24:55.272Z,-78
2022-11-09T13:27:39.292Z,-78
2022-11-09T13:30:40.795Z,-78
2022-11-09T13:33:28.445Z,-79
2022-11-09T13:36:14.659Z,-81
2022-11-09T13:38:43.353Z,-81
2022-11-09T13:41:43.178Z,-78
2022-11-09T13:44:32.963Z,-78
2022-11-09T13:47:07.000Z,-78
2022-11-09T13:49:46.050Z,-78
2022-11-09T13:52:43.824Z,-78
2022-11-09T13:55:26.956Z,-78
2022-11-09T13:58:00.704Z,-78
2022-11-09T14:00:29.856Z,-79
2022-11-09T14:03:06.750Z,-78
2022-11-09T14:05:37.646Z,-77
2022-11-09T14:08:07.212Z,-76
2022-11-09T14:10:49.800Z,-81
2022-11-09T14:13:33.344Z,-77
2022-11-09T14:16:07.575Z,-77
2022-11-09T14:18:45.364Z,-79
2022-11-09T14:21:22.849Z,-77
2022-11-09T14:23:51.084Z,-77
2022-11-09T14:26:21.224Z,-79
2022-11-09T14:28:51.923Z,-78
2022-11-09T14:31:26.392Z,-78
2022-11-09T14:34:06.062Z,-78
2022-11-09T14:36:36.225Z,-79
2022-11-09T14:39:06.710Z,-78
2022-11-09T14:41:35.959Z,-78
2022-11-09T14:44:04.729Z,-78
2022-11-09T14:46:33.096Z,-79
2022-11-09T14:49:04.047Z,-79
2022-11-09T14:51:35.910Z,-78
2022-11-09T14:54:05.405Z,-79
2022-11-09T14:56:45.997Z,-78
2022-11-09T14:59:16.739Z,-79
2022-11-09T15:01:59.162Z,-79
2022-11-09T15:04:30.243Z,-78
2022-11-09T15:07:01.384Z,-77
2022-11-09T15:09:35.111Z,-78
2022-11-09T15:12:03.580Z,-78
2022-11-09T15:14:33.116Z,-77
2022-11-09T15:17:16.083Z,-77
2022-11-09T15:19:52.894Z,-77
2022-11-09T15:22:47.436Z,-77
2022-11-09T15:25:37.392Z,-77
2022-11-09T15:28:23.900Z,-77
2022-11-09T15:31:12.795Z,-77
2022-11-09T15:33:51.298Z,-77
2022-11-09T15:36:27.299Z,-77
2022-11-09T15:39:01.850Z,-77
2022-11-09T15:41:31.612Z,-77
2022-11-09T15:44:00.572Z,-77
2022-11-09T15:46:35.144Z,-77
2022-11-09T15:49:14.986Z,-77
2022-11-09T15:51:45.844Z,-77
2022-11-09T15:54:14.848Z,-77
2022-11-09T15:56:44.214Z,-77
2022-11-09T15:59:17.997Z,-77
2022-11-09T16:01:47.635Z,-77
2022-11-09T16:04:16.320Z,-77
2022-11-09T16:06:47.073Z,-77
2022-11-09T16:09:15.552Z,-77
2022-11-09T16:11:44.220Z,-79
2022-11-09T16:14:12.860Z,-79
2022-11-09T16:16:44.021Z,-78
2022-11-09T16:19:15.452Z,-78
2022-11-09T16:21:45.784Z,-79
2022-11-09T16:24:17.463Z,-78
2022-11-09T16:26:46.064Z,-78
2022-11-09T16:29:14.810Z,-82
2022-11-09T16:31:51.931Z,-81
2022-11-09T16:34:27.328Z,-82
2022-11-09T16:36:57.318Z,-82
2022-11-09T16:39:28.471Z,-81
2022-11-09T16:41:57.408Z,-82
2022-11-09T16:44:27.308Z,-82
2022-11-09T16:46:56.377Z,-82
2022-11-09T16:49:24.676Z,-78
2022-11-09T16:51:52.758Z,-77
2022-11-09T16:54:22.663Z,-78
2022-11-09T16:56:52.287Z,-78
2022-11-09T16:59:22.128Z,-78
2022-11-09T17:02:00.427Z,-78
2022-11-09T17:04:31.731Z,-78
2022-11-09T17:07:01.144Z,-78
2022-11-09T17:09:34.270Z,-78
2022-11-09T17:12:02.299Z,-78
2022-11-09T17:14:33.802Z,-78
2022-11-09T17:17:01.877Z,-78
2022-11-09T17:19:33.224Z,-77
2022-11-09T17:22:01.310Z,-78
2022-11-09T17:24:30.755Z,-78
2022-11-09T17:26:58.769Z,-78
2022-11-09T17:29:27.474Z,-78
2022-11-09T17:31:55.814Z,-78
2022-11-09T17:34:23.811Z,-78
2022-11-09T17:37:04.207Z,-78
2022-11-09T17:39:34.120Z,-78
2022-11-09T17:42:02.149Z,-78
2022-11-09T17:44:30.127Z,-79
2022-11-09T17:46:58.513Z,-78
2022-11-09T17:49:26.528Z,-81
2022-11-09T17:51:54.605Z,-82
2022-11-09T17:54:22.759Z,-83
2022-11-09T17:56:52.627Z,-83
2022-11-09T17:59:21.121Z,-82
2022-11-09T18:01:49.587Z,-82
2022-11-09T18:04:17.618Z,-82
2022-11-09T18:06:45.688Z,-83
2022-11-09T18:09:44.397Z,-82
2022-11-09T18:12:04.429Z,-84
2022-11-09T18:15:12.289Z,-83
2022-11-09T18:17:40.532Z,-82
2022-11-09T18:20:09.147Z,-84
2022-11-09T18:22:39.474Z,-82
2022-11-09T18:25:08.306Z,-83
2022-11-09T18:27:37.776Z,-82
2022-11-09T18:30:07.855Z,-83
2022-11-09T18:32:42.927Z,-84
2022-11-09T18:35:11.358Z,-83
2022-11-09T18:37:40.687Z,-83
2022-11-09T18:40:09.498Z,-83
2022-11-09T18:42:38.922Z,-83
2022-11-09T18:45:07.968Z,-82
2022-11-09T18:47:36.141Z,-84
2022-11-09T18:50:04.448Z,-83
2022-11-09T18:52:34.080Z,-84
2022-11-09T18:55:04.988Z,-82
2022-11-09T18:57:35.252Z,-83
2022-11-09T19:00:05.507Z,-83
2022-11-09T19:02:33.616Z,-82
2022-11-09T19:05:01.682Z,-84
2022-11-09T19:07:29.954Z,-84
2022-11-09T19:09:58.336Z,-85
2022-11-09T19:12:32.509Z,-84
2022-11-09T19:15:00.565Z,-85
2022-11-09T19:17:30.013Z,-85
2022-11-09T19:19:58.162Z,-84
2022-11-09T19:22:28.683Z,-85
2022-11-09T19:24:56.752Z,-84
2022-11-09T19:27:28.744Z,-85
2022-11-09T19:30:04.949Z,-84
2022-11-09T19:32:38.473Z,-83
2022-11-09T19:35:06.983Z,-82
2022-11-09T19:37:35.008Z,-83
2022-11-09T19:40:03.480Z,-83
2022-11-09T19:42:31.581Z,-83
2022-11-09T19:44:59.678Z,-84
2022-11-09T19:47:27.759Z,-83
2022-11-09T19:49:57.193Z,-82
2022-11-09T19:52:25.251Z,-83
2022-11-09T19:54:53.398Z,-83
2022-11-09T19:57:21.783Z,-83
2022-11-09T19:59:50.067Z,-83
2022-11-09T20:02:18.160Z,-83
2022-11-09T20:04:47.532Z,-83
2022-11-09T20:07:17.026Z,-84
2022-11-09T20:09:45.207Z,-84
2022-11-09T20:12:30.507Z,-84
2022-11-09T20:14:58.656Z,-83
2022-11-09T20:17:26.738Z,-82
2022-11-09T20:19:54.794Z,-84
2022-11-09T20:22:24.241Z,-84
2022-11-09T20:24:52.605Z,-83
2022-11-09T20:27:20.685Z,-85
2022-11-09T20:29:48.740Z,-83
2022-11-09T20:32:21.559Z,-83
2022-11-09T20:34:50.172Z,-84
2022-11-09T20:37:18.424Z,-84
2022-11-09T20:39:47.873Z,-84
2022-11-09T20:42:16.300Z,-84
2022-11-09T20:44:44.320Z,-83
2022-11-09T20:47:12.298Z,-83
2022-11-09T20:49:40.454Z,-83
2022-11-09T20:52:08.476Z,-83
2022-11-09T20:54:36.484Z,-84
2022-11-09T20:57:06.477Z,-85
2022-11-09T20:59:34.999Z,-84
2022-11-09T21:02:03.114Z,-84
2022-11-09T21:04:31.723Z,-83
2022-11-09T21:06:59.757Z,-84
2022-11-09T21:09:27.863Z,-83
2022-11-09T21:12:13.429Z,-84
2022-11-09T21:14:43.275Z,-82
2022-11-09T21:17:12.067Z,-82
2022-11-09T21:19:40.087Z,-82
2022-11-09T21:22:08.237Z,-81
2022-11-09T21:24:59.109Z,-82
2022-11-09T21:27:48.041Z,-82
2022-11-09T21:30:19.308Z,-82
2022-11-09T21:32:47.600Z,-82
2022-11-09T21:35:16.002Z,-82
2022-11-09T21:37:44.651Z,-82
2022-11-09T21:40:13.355Z,-82
2022-11-09T21:42:41.456Z,-82
2022-11-09T21:45:10.731Z,-81
2022-11-09T21:47:40.205Z,-81
2022-11-09T21:50:12.577Z,-81
2022-11-09T21:52:41.403Z,-81
2022-11-09T21:55:09.827Z,-81
2022-11-09T21:57:38.131Z,-81
2022-11-09T22:00:07.231Z,-81
2022-11-09T22:02:35.599Z,-81
2022-11-09T22:05:05.487Z,-81
2022-11-09T22:07:33.907Z,-81
2022-11-09T22:10:10.780Z,-81
2022-11-09T22:12:57.214Z,-82
2022-11-09T22:15:42.672Z,-82
2022-11-09T22:18:31.477Z,-81
2022-11-09T22:20:59.883Z,-82
2022-11-09T22:23:27.860Z,-81
2022-11-09T22:25:56.003Z,-82
2022-11-09T22:28:24.027Z,-81
2022-11-09T22:30:52.020Z,-81
2022-11-09T22:33:24.459Z,-82
2022-11-09T22:35:55.981Z,-81
2022-11-09T22:38:25.612Z,-81
2022-11-09T22:40:59.993Z,-82
2022-11-09T22:43:28.397Z,-81
2022-11-09T22:45:56.394Z,-82
2022-11-09T22:48:24.791Z,-82
